createdAt,value
2019-03-12T00:00:50.354Z,17.33
2019-03-12T00:03:19.782Z,31.30
2019-03-12T00:05:49.217Z,15.17
2019-03-12T00:08:18.680Z,18.53
2019-03-12T00:10:48.270Z,15.20
2019-03-12T00:13:17.714Z,17.47
2019-03-12T00:15:47.219Z,22.83
2019-03-12T00:18:16.645Z,17.67
2019-03-12T00:20:46.065Z,19.33
2019-03-12T00:23:15.470Z,19.80
2019-03-12T00:25:44.913Z,14.17
2019-03-12T00:28:14.382Z,19.17
2019-03-12T00:56:26.528Z,19.47
2019-03-12T00:58:55.994Z,19.00
2019-03-12T01:01:25.538Z,19.40
2019-03-12T01:03:55.001Z,31.03
2019-03-12T01:06:24.427Z,19.60
2019-03-12T01:08:53.904Z,18.67
2019-03-12T01:11:23.332Z,24.83
2019-03-12T01:13:52.771Z,18.90
2019-03-12T01:16:22.407Z,20.90
2019-03-12T01:18:51.849Z,22.03
2019-03-12T01:21:21.571Z,24.80
2019-03-12T01:23:51.019Z,31.77
2019-03-12T01:26:20.445Z,28.60
2019-03-12T01:28:49.907Z,26.07
2019-03-12T01:31:19.786Z,25.77
2019-03-12T01:33:49.222Z,26.53
2019-03-12T01:36:18.593Z,33.07
2019-03-12T01:38:48.026Z,40.07
2019-03-12T01:41:17.439Z,29.23
2019-03-12T01:43:46.868Z,36.77
2019-03-12T01:46:16.333Z,25.43
2019-03-12T01:48:45.748Z,24.50
2019-03-12T01:51:15.179Z,36.30
2019-03-12T01:53:44.804Z,27.47
2019-03-12T01:56:14.306Z,27.87
2019-03-12T01:58:43.783Z,29.10
2019-03-12T02:01:13.223Z,20.90
2019-03-12T02:03:42.628Z,25.37
2019-03-12T02:06:12.405Z,37.40
2019-03-12T02:08:41.856Z,25.43
2019-03-12T02:11:11.589Z,20.67
2019-03-12T02:13:41.152Z,26.20
2019-03-12T02:16:10.533Z,24.53
2019-03-12T02:18:39.941Z,26.13
2019-03-12T02:21:09.564Z,19.37
2019-03-12T02:23:39.987Z,19.10
2019-03-12T02:26:09.432Z,17.70
2019-03-12T02:28:38.830Z,32.57
2019-03-12T02:31:08.477Z,26.43
2019-03-12T02:33:37.998Z,34.47
2019-03-12T02:36:07.811Z,29.07
2019-03-12T02:38:37.288Z,37.60
2019-03-12T02:41:06.980Z,35.07
2019-03-12T02:43:36.412Z,20.73
2019-03-12T02:46:06.020Z,33.67
2019-03-12T02:48:35.453Z,32.50
2019-03-12T02:51:04.930Z,32.90
2019-03-12T02:53:34.389Z,25.07
2019-03-12T02:56:03.855Z,42.67
2019-03-12T02:58:33.655Z,36.27
2019-03-12T03:01:03.108Z,26.90
2019-03-12T03:03:32.638Z,31.93
2019-03-12T03:06:03.713Z,27.63
2019-03-12T03:08:34.865Z,28.07
2019-03-12T03:11:05.270Z,27.23
2019-03-12T03:13:34.674Z,23.97
2019-03-12T03:16:05.807Z,23.87
2019-03-12T03:18:35.528Z,27.97
2019-03-12T03:21:05.047Z,36.07
2019-03-12T03:23:34.994Z,28.50
2019-03-12T03:26:05.466Z,24.53
2019-03-12T03:28:35.233Z,29.83
2019-03-12T03:31:04.751Z,39.83
2019-03-12T03:33:34.183Z,21.83
2019-03-12T03:36:03.656Z,27.67
2019-03-12T03:38:33.149Z,26.33
2019-03-12T03:41:02.666Z,27.90
2019-03-12T03:43:32.239Z,31.10
2019-03-12T03:46:01.602Z,27.70
2019-03-12T03:48:31.007Z,32.87
2019-03-12T03:51:00.705Z,34.20
2019-03-12T03:53:30.136Z,30.10
2019-03-12T03:55:59.587Z,22.60
2019-03-12T03:58:29.315Z,22.37
2019-03-12T04:00:58.771Z,31.40
2019-03-12T04:03:28.290Z,28.37
2019-03-12T04:05:57.763Z,19.83
2019-03-12T04:08:27.297Z,28.80
2019-03-12T04:10:56.862Z,24.40
2019-03-12T04:13:26.484Z,26.67
2019-03-12T04:15:55.957Z,40.33
2019-03-12T04:18:25.411Z,21.20
2019-03-12T04:20:54.844Z,24.43
2019-03-12T04:23:24.200Z,24.83
2019-03-12T04:25:53.626Z,18.30
2019-03-12T04:28:23.384Z,26.77
2019-03-12T04:30:52.932Z,24.73
2019-03-12T04:34:00.243Z,36.87
2019-03-12T04:36:29.684Z,39.10
2019-03-12T04:38:59.128Z,20.83
2019-03-12T04:41:28.770Z,32.87
2019-03-12T04:43:58.206Z,18.17
2019-03-12T04:46:27.638Z,26.33
2019-03-12T04:48:57.176Z,32.67
2019-03-12T04:51:26.968Z,28.93
2019-03-12T04:53:56.393Z,22.33
2019-03-12T04:56:25.839Z,27.57
2019-03-12T04:58:55.269Z,14.30
2019-03-12T05:01:24.708Z,20.67
2019-03-12T05:03:54.168Z,27.23
2019-03-12T05:06:23.521Z,20.83
2019-03-12T05:08:53.038Z,25.80
2019-03-12T05:11:23.514Z,21.07
2019-03-12T05:14:18.503Z,31.27
2019-03-12T05:16:47.976Z,24.60
2019-03-12T05:19:17.663Z,19.57
2019-03-12T05:21:47.095Z,43.13
2019-03-12T05:24:16.482Z,26.53
2019-03-12T05:26:46.009Z,17.77
2019-03-12T05:29:15.452Z,23.50
2019-03-12T05:31:46.421Z,23.40
2019-03-12T05:34:15.851Z,25.63
2019-03-12T05:36:45.289Z,22.23
2019-03-12T05:39:14.733Z,23.00
2019-03-12T05:41:44.541Z,19.23
2019-03-12T05:44:14.006Z,16.87
2019-03-12T05:46:43.417Z,30.07
2019-03-12T05:49:12.846Z,20.00
2019-03-12T05:51:42.311Z,24.13
2019-03-12T05:54:11.745Z,18.60
2019-03-12T05:56:41.117Z,21.80
2019-03-12T05:59:10.483Z,20.17
2019-03-12T06:01:39.847Z,26.47
2019-03-12T06:04:09.223Z,28.03
2019-03-12T06:06:38.627Z,32.03
2019-03-12T06:09:08.564Z,27.07
2019-03-12T06:11:38.023Z,26.03
2019-03-12T06:14:07.453Z,14.90
2019-03-12T06:16:36.817Z,19.47
2019-03-12T06:19:06.351Z,17.67
2019-03-12T06:21:35.773Z,21.50
2019-03-12T06:24:05.199Z,26.10
2019-03-12T06:26:34.651Z,18.30
2019-03-12T06:29:04.085Z,21.50
2019-03-12T06:31:47.186Z,20.10
2019-03-12T06:34:18.255Z,13.03
2019-03-12T06:36:49.342Z,27.67
2019-03-12T06:39:20.330Z,23.23
2019-03-12T06:42:08.230Z,24.30
2019-03-12T06:44:46.149Z,19.30
2019-03-12T06:47:19.655Z,29.30
2019-03-12T06:49:57.748Z,23.37
2019-03-12T06:52:44.834Z,14.80
2019-03-12T06:55:16.156Z,19.23
2019-03-12T06:58:13.724Z,18.23
2019-03-12T07:00:44.992Z,19.40
2019-03-12T07:03:16.081Z,13.57
2019-03-12T07:05:49.855Z,18.03
2019-03-12T07:08:32.613Z,24.03
2019-03-12T07:11:03.670Z,22.73
2019-03-12T07:13:37.202Z,17.97
2019-03-12T07:16:10.986Z,29.67
2019-03-12T07:18:47.974Z,22.00
2019-03-12T07:21:18.972Z,16.93
2019-03-12T07:24:06.413Z,24.33
2019-03-12T07:26:43.154Z,18.73
2019-03-12T07:29:32.394Z,16.03
2019-03-12T07:32:03.451Z,14.77
2019-03-12T07:34:37.155Z,13.53
2019-03-12T07:37:08.352Z,18.13
2019-03-12T07:39:48.670Z,18.03
2019-03-12T07:42:22.438Z,11.93
2019-03-12T07:44:59.500Z,21.27
2019-03-12T07:47:35.632Z,17.33
2019-03-12T07:50:12.582Z,17.87
2019-03-12T07:52:46.440Z,18.47
2019-03-12T07:55:29.664Z,21.97
2019-03-12T07:58:02.315Z,16.50
2019-03-12T08:00:33.416Z,12.67
2019-03-12T08:03:07.356Z,11.73
2019-03-12T08:05:43.882Z,22.97
2019-03-12T08:08:18.739Z,26.37
2019-03-12T08:10:58.598Z,15.70
2019-03-12T08:13:44.814Z,20.13
2019-03-12T08:16:21.774Z,15.77
2019-03-12T08:18:55.434Z,13.37
2019-03-12T08:21:29.148Z,17.43
2019-03-12T08:24:13.718Z,18.50
2019-03-12T08:26:50.892Z,18.97
2019-03-12T08:29:21.982Z,9.57
2019-03-12T08:31:58.769Z,13.27
2019-03-12T08:34:44.826Z,15.93
2019-03-12T08:37:16.041Z,12.50
2019-03-12T08:39:47.210Z,12.40
2019-03-12T08:42:30.530Z,14.77
2019-03-12T08:45:01.778Z,19.87
2019-03-12T08:47:51.164Z,13.43
2019-03-12T08:50:37.092Z,15.50
2019-03-12T08:53:14.324Z,13.97
2019-03-12T08:55:48.067Z,16.17
2019-03-12T08:58:20.646Z,37.47
2019-03-12T09:01:03.570Z,11.33
2019-03-12T09:03:50.818Z,14.07
2019-03-12T09:06:22.158Z,18.03
2019-03-12T09:08:53.297Z,14.60
2019-03-12T09:11:27.175Z,14.20
2019-03-12T09:14:07.202Z,18.40
2019-03-12T09:16:47.107Z,16.43
2019-03-12T09:19:29.995Z,12.47
2019-03-12T09:22:06.909Z,11.43
2019-03-12T09:24:44.084Z,15.07
2019-03-12T09:27:17.890Z,15.43
2019-03-12T09:29:49.066Z,13.70
2019-03-12T09:32:26.305Z,13.13
2019-03-12T09:35:06.231Z,18.70
2019-03-12T09:37:39.903Z,15.47
2019-03-12T09:40:29.676Z,11.97
2019-03-12T09:43:00.854Z,12.33
2019-03-12T09:45:48.066Z,14.93
2019-03-12T09:48:19.137Z,15.43
2019-03-12T09:50:50.560Z,15.33
2019-03-12T09:53:24.454Z,20.00
2019-03-12T09:55:55.716Z,13.60
2019-03-12T09:58:42.979Z,20.03
2019-03-12T10:01:19.975Z,16.27
2019-03-12T10:04:01.229Z,16.07
2019-03-12T10:06:38.787Z,13.10
2019-03-12T10:09:20.690Z,17.00
2019-03-12T10:12:03.792Z,18.80
2019-03-12T10:14:34.905Z,13.43
2019-03-12T10:17:06.173Z,12.67
2019-03-12T10:19:46.331Z,12.00
2019-03-12T10:22:20.030Z,19.97
2019-03-12T10:24:51.136Z,18.07
2019-03-12T10:27:31.933Z,12.70
2019-03-12T10:30:03.058Z,15.70
2019-03-12T10:32:34.499Z,16.07
2019-03-12T10:35:13.369Z,12.50
2019-03-12T10:37:50.246Z,17.93
2019-03-12T10:40:30.199Z,20.20
2019-03-12T10:43:17.859Z,17.63
2019-03-12T10:45:48.994Z,14.93
2019-03-12T10:48:18.591Z,19.43
2019-03-12T10:50:48.273Z,14.50
2019-03-12T10:53:17.847Z,22.47
2019-03-12T10:55:47.653Z,15.73
2019-03-12T10:58:17.431Z,11.33
2019-03-12T11:00:47.119Z,19.53
2019-03-12T11:03:16.665Z,12.83
2019-03-12T11:05:46.546Z,18.60
2019-03-12T11:08:16.311Z,12.73
2019-03-12T11:10:45.849Z,12.20
2019-03-12T11:13:15.343Z,9.57
2019-03-12T11:15:44.900Z,10.50
2019-03-12T11:18:14.481Z,11.13
2019-03-12T11:20:44.371Z,10.07
2019-03-12T11:23:13.885Z,12.70
2019-03-12T11:25:43.690Z,17.70
2019-03-12T11:28:13.346Z,10.10
2019-03-12T11:30:42.998Z,19.40
2019-03-12T11:33:12.475Z,15.20
2019-03-12T11:35:41.970Z,9.77
2019-03-12T11:38:11.543Z,11.07
2019-03-12T11:40:41.100Z,9.50
2019-03-12T11:43:10.651Z,10.20
2019-03-12T11:45:40.353Z,11.13
2019-03-12T11:48:10.312Z,13.13
2019-03-12T11:50:40.089Z,8.23
2019-03-12T11:53:09.869Z,12.03
2019-03-12T11:55:39.397Z,10.60
2019-03-12T11:58:08.894Z,13.03
2019-03-12T12:00:51.977Z,11.27
2019-03-12T12:03:21.540Z,13.40
2019-03-12T12:05:51.044Z,8.03
2019-03-12T12:08:20.588Z,8.63
2019-03-12T12:10:50.134Z,16.93
2019-03-12T12:13:19.686Z,9.60
2019-03-12T12:15:49.172Z,17.53
2019-03-12T12:18:18.944Z,15.93
2019-03-12T12:20:48.399Z,10.03
2019-03-12T12:23:17.948Z,14.73
2019-03-12T12:25:47.460Z,14.90
2019-03-12T12:28:16.992Z,10.83
2019-03-12T12:30:46.525Z,16.20
2019-03-12T12:33:16.088Z,10.27
2019-03-12T12:35:45.533Z,9.87
2019-03-12T12:38:14.940Z,14.37
2019-03-12T12:40:44.340Z,10.93
2019-03-12T12:43:13.818Z,9.17
2019-03-12T12:45:43.988Z,13.30
2019-03-12T12:48:13.432Z,10.30
2019-03-12T12:50:42.840Z,10.20
2019-03-12T12:53:12.406Z,13.20
2019-03-12T12:55:41.900Z,10.63
2019-03-12T12:58:11.528Z,16.27
2019-03-12T13:00:41.085Z,14.63
2019-03-12T13:03:10.553Z,9.00
2019-03-12T13:05:40.070Z,11.53
2019-03-12T13:08:09.834Z,11.50
2019-03-12T13:10:39.293Z,11.63
2019-03-12T13:13:08.860Z,13.43
2019-03-12T13:15:39.217Z,12.83
2019-03-12T13:18:08.959Z,6.60
2019-03-12T13:20:38.551Z,11.23
2019-03-12T13:23:08.134Z,12.77
2019-03-12T13:25:37.994Z,9.10
2019-03-12T13:28:08.972Z,13.00
2019-03-12T13:30:38.766Z,7.27
2019-03-12T13:33:08.229Z,9.47
2019-03-12T13:35:37.924Z,10.53
2019-03-12T13:38:07.514Z,19.03
2019-03-12T13:40:36.975Z,10.60
2019-03-12T13:43:06.626Z,10.03
2019-03-12T13:45:36.360Z,7.57
2019-03-12T13:48:05.867Z,10.43
2019-03-12T13:50:35.672Z,8.43
2019-03-12T13:53:05.161Z,8.17
2019-03-12T13:55:34.579Z,13.73
2019-03-12T13:58:04.083Z,10.77
2019-03-12T14:00:33.821Z,12.00
2019-03-12T14:03:03.521Z,10.63
2019-03-12T14:05:33.055Z,9.27
2019-03-12T14:08:02.505Z,16.10
2019-03-12T14:10:31.973Z,16.37
2019-03-12T14:13:01.506Z,14.37
2019-03-12T14:15:35.941Z,7.40
2019-03-12T14:18:05.624Z,10.93
2019-03-12T14:20:46.079Z,9.73
2019-03-12T14:23:18.532Z,8.10
2019-03-12T14:25:48.129Z,14.70
2019-03-12T14:28:17.563Z,6.63
2019-03-12T14:30:46.939Z,11.67
2019-03-12T14:33:17.496Z,8.03
2019-03-12T14:35:51.856Z,11.10
2019-03-12T14:38:18.261Z,17.53
2019-03-12T14:40:47.813Z,9.37
2019-03-12T14:43:17.251Z,11.30
2019-03-12T14:45:51.382Z,9.50
2019-03-12T14:48:46.565Z,8.50
2019-03-12T14:51:27.687Z,8.43
2019-03-12T14:54:05.525Z,14.93
2019-03-12T14:56:35.069Z,11.33
2019-03-12T14:59:04.490Z,15.60
2019-03-12T15:01:33.861Z,13.50
2019-03-12T15:04:03.411Z,17.83
2019-03-12T15:06:33.014Z,16.67
2019-03-12T15:09:02.645Z,7.67
2019-03-12T15:11:33.733Z,14.10
2019-03-12T15:14:03.262Z,13.77
2019-03-12T15:16:32.699Z,12.20
2019-03-12T15:19:02.085Z,11.07
2019-03-12T15:21:31.546Z,12.83
2019-03-12T15:24:00.984Z,14.60
2019-03-12T15:26:30.457Z,16.27
2019-03-12T15:28:59.897Z,13.87
2019-03-12T15:31:29.338Z,10.27
2019-03-12T15:33:58.736Z,14.90
2019-03-12T15:36:28.230Z,10.03
2019-03-12T15:38:57.815Z,10.00
2019-03-12T15:41:27.330Z,20.17
2019-03-12T15:43:56.779Z,10.50
2019-03-12T15:46:26.420Z,13.83
2019-03-12T15:48:55.839Z,7.33
2019-03-12T15:51:25.319Z,14.40
2019-03-12T15:53:54.771Z,9.80
2019-03-12T15:56:24.149Z,18.60
2019-03-12T15:58:53.627Z,9.30
2019-03-12T16:01:23.101Z,8.77
2019-03-12T16:03:52.603Z,12.33
2019-03-12T16:06:22.029Z,13.37
2019-03-12T16:08:51.430Z,14.70
2019-03-12T16:11:20.813Z,13.17
2019-03-12T16:13:50.269Z,7.60
2019-03-12T16:16:19.742Z,9.73
2019-03-12T16:18:50.316Z,8.17
2019-03-12T16:21:19.749Z,11.03
2019-03-12T16:23:49.149Z,11.00
2019-03-12T16:26:18.506Z,13.10
2019-03-12T16:28:47.863Z,10.33
2019-03-12T16:31:17.328Z,11.87
2019-03-12T16:33:46.770Z,10.97
2019-03-12T16:36:16.123Z,12.03
2019-03-12T16:38:46.068Z,11.20
2019-03-12T16:41:15.690Z,11.37
2019-03-12T16:43:45.130Z,11.30
2019-03-12T16:46:14.579Z,11.73
2019-03-12T16:48:44.072Z,13.00
2019-03-12T16:51:13.590Z,7.73
2019-03-12T16:53:43.088Z,13.83
2019-03-12T16:56:12.552Z,13.33
2019-03-12T16:58:42.032Z,9.40
2019-03-12T17:01:11.662Z,13.87
2019-03-12T17:03:41.200Z,12.90
2019-03-12T17:06:10.693Z,10.30
2019-03-12T17:08:40.221Z,18.33
2019-03-12T17:11:09.741Z,7.23
2019-03-12T17:13:39.264Z,9.53
2019-03-12T17:16:08.777Z,11.27
2019-03-12T17:18:38.290Z,10.10
2019-03-12T17:21:07.746Z,10.00
2019-03-12T17:23:38.215Z,10.03
2019-03-12T17:26:07.727Z,16.20
2019-03-12T17:28:37.260Z,14.80
2019-03-12T17:31:06.830Z,8.53
2019-03-12T17:33:36.375Z,15.20
2019-03-12T17:36:05.953Z,10.80
2019-03-12T17:38:46.075Z,16.37
2019-03-12T17:41:06.515Z,8.10
2019-03-12T17:43:36.006Z,10.90
2019-03-12T17:46:05.534Z,9.73
2019-03-12T17:48:35.135Z,11.80
2019-03-12T17:51:04.781Z,10.60
2019-03-12T17:53:34.215Z,7.70
2019-03-12T17:56:03.869Z,9.63
2019-03-12T17:58:33.351Z,9.23
2019-03-12T18:01:03.063Z,7.80
2019-03-12T18:03:32.992Z,9.20
2019-03-12T18:06:02.476Z,11.50
2019-03-12T18:08:32.103Z,8.77
2019-03-12T18:11:01.620Z,12.53
2019-03-12T18:13:31.096Z,10.03
2019-03-12T18:16:00.564Z,8.87
2019-03-12T18:18:30.007Z,10.30
2019-03-12T18:20:59.582Z,6.50
2019-03-12T18:23:29.093Z,9.70
2019-03-12T18:25:59.098Z,13.47
2019-03-12T18:28:28.578Z,16.97
2019-03-12T18:30:58.032Z,7.70
2019-03-12T18:33:27.869Z,12.97
2019-03-12T18:35:57.299Z,9.63
2019-03-12T18:38:26.694Z,9.97
2019-03-12T18:40:56.112Z,9.17
2019-03-12T18:43:25.602Z,6.20
2019-03-12T18:45:55.056Z,15.90
2019-03-12T18:48:24.565Z,13.70
2019-03-12T18:50:55.526Z,7.87
2019-03-12T18:53:25.013Z,10.30
2019-03-12T18:56:02.268Z,9.63
2019-03-12T18:58:31.833Z,15.67
2019-03-12T19:01:02.472Z,10.87
2019-03-12T19:03:31.948Z,12.90
2019-03-12T19:06:01.384Z,8.43
2019-03-12T19:08:30.936Z,10.97
2019-03-12T19:11:00.355Z,10.13
2019-03-12T19:13:29.735Z,9.40
2019-03-12T19:16:00.286Z,14.50
2019-03-12T19:18:29.733Z,9.60
2019-03-12T19:20:59.169Z,9.60
2019-03-12T19:23:29.720Z,10.83
2019-03-12T19:25:59.171Z,12.67
2019-03-12T19:28:28.700Z,11.43
2019-03-12T19:30:59.875Z,9.47
2019-03-12T19:33:30.125Z,9.70
2019-03-12T19:35:59.659Z,9.80
2019-03-12T19:38:48.937Z,10.90
2019-03-12T19:41:18.465Z,11.30
2019-03-12T19:47:29.724Z,12.97
2019-03-12T19:50:50.233Z,7.40
2019-03-12T19:53:19.675Z,4.40
2019-03-12T19:55:55.187Z,4.87
2019-03-12T19:58:28.185Z,2.63
2019-03-12T20:00:56.774Z,4.77
2019-03-12T20:03:26.263Z,3.90
2019-03-12T20:05:55.725Z,3.60
2019-03-12T20:08:25.191Z,4.10
2019-03-12T20:11:18.768Z,5.10
2019-03-12T20:13:54.194Z,3.77
2019-03-12T20:17:08.670Z,3.90
2019-03-12T20:19:58.031Z,3.50
2019-03-12T20:22:49.980Z,6.80
2019-03-12T20:25:34.411Z,2.90
2019-03-12T20:28:27.905Z,3.83
2019-03-12T20:31:22.825Z,5.43
2019-03-12T20:34:14.479Z,3.80
2019-03-12T20:37:12.364Z,5.53
2019-03-12T20:40:05.868Z,3.77
2019-03-12T20:42:38.389Z,5.10
2019-03-12T20:45:34.647Z,3.83
2019-03-12T20:48:09.835Z,9.57
2019-03-12T20:51:15.715Z,6.30
2019-03-12T20:54:05.018Z,5.50
2019-03-12T20:56:46.406Z,6.30
2019-03-12T20:59:47.810Z,4.37
2019-03-12T21:02:25.832Z,5.93
2019-03-12T21:05:19.214Z,5.83
2019-03-12T21:08:24.868Z,4.97
2019-03-12T21:11:19.516Z,6.10
2019-03-12T21:14:14.444Z,5.77
2019-03-12T21:17:10.936Z,4.90
2019-03-12T21:19:52.721Z,9.83
2019-03-12T21:22:31.030Z,5.17
2019-03-12T21:25:03.444Z,5.77
2019-03-12T21:27:38.681Z,6.43
2019-03-12T21:30:07.023Z,9.30
2019-03-12T21:32:36.476Z,5.77
2019-03-12T21:35:06.370Z,8.83
2019-03-12T21:37:35.767Z,9.07
2019-03-12T21:40:08.231Z,10.40
2019-03-12T21:42:37.618Z,8.43
2019-03-12T21:45:10.303Z,13.93
2019-03-12T21:47:39.657Z,8.27
2019-03-12T21:50:10.388Z,13.07
2019-03-12T21:52:39.745Z,9.93
2019-03-12T21:55:12.570Z,10.83
2019-03-12T21:57:42.205Z,12.43
2019-03-12T22:00:14.717Z,9.13
2019-03-12T22:02:48.194Z,9.23
2019-03-12T22:05:17.614Z,12.90
2019-03-12T22:07:47.108Z,9.00
2019-03-12T22:10:17.550Z,10.00
2019-03-12T22:12:46.996Z,6.93
2019-03-12T22:15:16.798Z,5.70
2019-03-12T22:17:46.211Z,7.23
2019-03-12T22:20:15.842Z,6.77
2019-03-12T22:22:46.934Z,4.50
2019-03-12T22:25:16.421Z,6.97
2019-03-12T22:27:45.788Z,7.23
2019-03-12T22:30:18.509Z,2.60
2019-03-12T22:32:48.305Z,4.80
2019-03-12T22:35:17.653Z,7.40
2019-03-12T22:37:47.410Z,4.47
2019-03-12T22:40:16.912Z,6.47
2019-03-12T22:42:46.293Z,3.23
2019-03-12T22:45:15.787Z,2.93
2019-03-12T22:47:45.139Z,6.17
2019-03-12T22:50:17.787Z,13.30
2019-03-12T22:52:47.221Z,8.13
2019-03-12T22:55:16.728Z,5.97
2019-03-12T22:57:46.261Z,3.40
2019-03-12T23:00:34.721Z,3.13
2019-03-12T23:03:21.665Z,7.47
2019-03-12T23:06:08.808Z,5.57
2019-03-12T23:08:57.803Z,3.97
2019-03-12T23:11:28.817Z,5.03
2019-03-12T23:13:59.848Z,9.60
2019-03-12T23:16:29.839Z,7.40
2019-03-12T23:18:59.941Z,8.57
2019-03-12T23:21:29.505Z,5.83
2019-03-12T23:23:59.129Z,9.80
2019-03-12T23:26:28.979Z,6.23
2019-03-12T23:28:58.767Z,9.47
2019-03-12T23:31:28.359Z,7.53
2019-03-12T23:33:57.723Z,8.20
2019-03-12T23:36:27.367Z,4.67
2019-03-12T23:38:56.725Z,20.43
2019-03-12T23:41:26.165Z,10.23
2019-03-12T23:43:56.776Z,4.60
2019-03-12T23:46:26.555Z,6.87
2019-03-12T23:48:56.001Z,10.03
2019-03-12T23:51:25.470Z,7.70
2019-03-12T23:53:54.886Z,5.57
2019-03-12T23:56:24.431Z,7.73
2019-03-12T23:58:54.174Z,9.90
